Time;durP1;ratioP1;P1;durP2;ratioP2;P2;SDS_P1;SDS_P2;PMS_P1;PMS_P2;Temp;Humidity;BMP_temperature;BMP_pressure;BME280_temperature;BME280_humidity;BME280_pressure;Samples;Min_cycle;Max_cycle;Signal;HPM_P1;HPM_P2
2021/12/15 00:01:24;;;;;;;;;18.00;15.00;;;;;20.82;40.60;102744.44;5082737;27;51122;-43
2021/12/15 00:03:50;;;;;;;;;24.25;18.75;;;;;20.81;40.75;102754.59;5083578;27;51845;-44
2021/12/15 00:06:18;;;;;;;;;17.00;16.50;;;;;20.80;41.21;102749.28;5075006;27;51071;-43
2021/12/15 00:08:47;;;;;;;;;15.25;15.00;;;;;20.78;41.05;102735.69;5090466;27;51093;-47
2021/12/15 00:11:13;;;;;;;;;16.50;16.25;;;;;20.77;40.45;102735.88;5087635;27;51036;-45
2021/12/15 00:13:40;;;;;;;;;18.25;14.50;;;;;20.74;41.09;102732.44;5088046;27;51923;-44
2021/12/15 00:16:08;;;;;;;;;17.50;14.25;;;;;20.74;40.79;102724.19;5083851;27;51352;-43
2021/12/15 00:18:34;;;;;;;;;17.25;15.50;;;;;20.73;41.03;102727.09;5104586;27;51162;-48
2021/12/15 00:21:02;;;;;;;;;16.75;14.75;;;;;20.71;41.09;102735.53;5083142;27;51110;-45
2021/12/15 00:23:27;;;;;;;;;19.25;18.25;;;;;20.70;40.70;102728.31;5086416;27;51106;-43
2021/12/15 00:25:53;;;;;;;;;16.25;13.50;;;;;20.69;41.00;102732.09;5101176;27;50988;-43
2021/12/15 00:28:19;;;;;;;;;16.25;16.00;;;;;20.67;40.96;102723.19;5084867;27;51248;-44
2021/12/15 00:30:44;;;;;;;;;14.00;13.50;;;;;20.67;40.52;102725.94;5092808;27;51237;-42
2021/12/15 00:33:10;;;;;;;;;15.50;14.00;;;;;20.66;40.81;102729.72;5085718;27;51784;-43
2021/12/15 00:35:36;;;;;;;;;19.75;16.50;;;;;20.65;41.15;102725.25;5083700;27;51136;-46
2021/12/15 00:38:04;;;;;;;;;15.50;14.75;;;;;20.64;41.10;102728.19;5090793;27;51123;-45
2021/12/15 00:40:30;;;;;;;;;20.50;20.50;;;;;20.64;40.99;102728.19;5086361;27;50903;-45
2021/12/15 00:42:56;;;;;;;;;15.00;14.75;;;;;20.62;40.73;102731.09;5089027;27;51013;-45
2021/12/15 00:45:22;;;;;;;;;16.50;14.25;;;;;20.61;41.11;102725.78;5085730;27;51428;-43
2021/12/15 00:47:48;;;;;;;;;17.25;14.75;;;;;20.60;41.12;102722.16;5086620;27;50952;-43
2021/12/15 00:50:17;;;;;;;;;16.25;15.00;;;;;20.58;40.58;102724.25;5087301;27;51199;-46
2021/12/15 00:52:44;;;;;;;;;18.75;17.50;;;;;20.59;40.88;102730.59;5082281;27;52453;-42
2021/12/15 00:55:13;;;;;;;;;14.25;14.00;;;;;20.57;41.20;102727.19;5086105;27;51039;-45
2021/12/15 00:57:38;;;;;;;;;18.50;17.50;;;;;20.57;40.98;102733.53;5088007;27;51062;-43
2021/12/15 01:00:06;;;;;;;;;16.00;15.75;;;;;20.56;40.88;102722.72;5089715;27;50856;-46
2021/12/15 01:02:33;;;;;;;;;17.75;15.25;;;;;20.55;40.96;102730.09;5081958;27;52032;-43
2021/12/15 01:04:58;;;;;;;;;14.75;13.75;;;;;20.55;40.99;102726.50;5087030;27;50978;-45
2021/12/15 01:07:24;;;;;;;;;18.00;15.75;;;;;20.53;41.12;102723.94;5085606;27;51070;-44
2021/12/15 01:09:55;;;;;;;;;16.25;14.75;;;;;20.53;40.98;102721.19;5089156;27;51050;-45
2021/12/15 01:20:42;;;;;;;;;19.50;17.25;;;;;20.49;41.04;102718.94;5083198;27;51054;-46
2021/12/15 01:23:11;;;;;;;;;18.50;15.50;;;;;20.48;40.80;102729.09;5086795;27;52173;-46
2021/12/15 01:25:43;;;;;;;;;16.75;11.75;;;;;20.46;41.05;102731.16;5088830;27;51407;-43
2021/12/15 01:28:09;;;;;;;;;14.00;13.75;;;;;20.45;41.06;102719.31;5087296;27;51073;-43
2021/12/15 01:30:42;;;;;;;;;14.00;12.75;;;;;20.44;41.13;102728.59;5085238;27;51389;-44
2021/12/15 01:33:08;;;;;;;;;16.00;13.75;;;;;20.43;40.88;102729.63;5085452;27;50978;-43
2021/12/15 01:35:39;;;;;;;;;15.75;14.25;;;;;20.44;40.75;102725.84;5082297;27;51573;-43
2021/12/15 01:38:04;;;;;;;;;17.25;15.50;;;;;20.42;41.19;102721.50;5086983;27;51123;-48
2021/12/15 01:40:40;;;;;;;;;15.75;15.00;;;;;20.41;41.07;102717.88;5087769;27;50900;-44
2021/12/15 01:46:51;;;;;;;;;14.50;13.50;;;;;20.41;40.99;102717.03;5085106;27;51774;-44
2021/12/15 01:49:13;;;;;;;;;19.00;15.25;;;;;20.38;40.89;102728.41;5086612;27;51110;-44
2021/12/15 01:51:40;;;;;;;;;14.25;10.50;;;;;20.38;41.13;102723.75;5078164;27;51249;-45
2021/12/15 01:54:06;;;;;;;;;17.25;15.50;;;;;20.37;41.18;102727.53;5083425;27;51038;-43
2021/12/15 01:56:31;;;;;;;;;14.75;13.75;;;;;20.37;40.84;102718.44;5085419;27;50900;-43
2021/12/15 01:58:58;;;;;;;;;16.50;13.25;;;;;20.36;40.73;102731.34;5083311;27;50937;-43
2021/12/15 02:01:24;;;;;;;;;23.00;15.75;;;;;20.35;40.82;102734.28;5079414;27;51327;-45
2021/12/15 02:03:49;;;;;;;;;15.75;14.25;;;;;20.34;41.00;102741.66;5085769;27;51408;-43
2021/12/15 02:06:15;;;;;;;;;15.50;14.75;;;;;20.33;41.22;102737.19;5082054;27;51072;-45
2021/12/15 02:08:42;;;;;;;;;15.00;13.00;;;;;20.33;40.72;102742.72;5086146;27;51192;-48
2021/12/15 02:11:07;;;;;;;;;16.75;13.50;;;;;20.32;40.90;102737.34;5086153;27;51274;-43
2021/12/15 02:13:33;;;;;;;;;14.50;11.75;;;;;20.31;40.73;102739.25;5081142;27;51810;-45
2021/12/15 02:16:02;;;;;;;;;17.25;14.75;;;;;20.32;40.75;102748.34;5082991;27;51359;-43
2021/12/15 02:18:32;;;;;;;;;19.25;14.00;;;;;20.30;41.16;102748.53;5093827;27;51118;-44
2021/12/15 02:21:11;;;;;;;;;16.50;15.00;;;;;20.30;40.81;102747.69;5086206;27;50920;-46
2021/12/15 02:23:44;;;;;;;;;15.00;12.50;;;;;20.30;41.20;102753.19;5083161;27;51787;-43
2021/12/15 02:26:15;;;;;;;;;12.50;12.25;;;;;20.28;41.13;102749.75;5080686;27;51135;-46
2021/12/15 02:28:42;;;;;;;;;10.50;10.00;;;;;20.28;40.87;102749.75;5075816;27;50973;-44
2021/12/15 02:38:50;;;;;;;;;14.50;12.25;;;;;20.26;41.00;102751.84;5085616;27;51085;-46
2021/12/15 02:41:20;;;;;;;;;15.75;12.75;;;;;20.24;40.97;102746.50;5083005;27;51079;-48
2021/12/15 02:43:53;;;;;;;;;16.75;14.25;;;;;20.23;40.77;102754.94;5078292;27;51287;-44
2021/12/15 02:46:20;;;;;;;;;16.00;13.00;;;;;20.23;41.04;102752.19;5081813;27;51045;-45
2021/12/15 02:48:45;;;;;;;;;15.00;10.50;;;;;20.22;41.09;102751.34;5086176;27;50949;-45
2021/12/15 02:51:12;;;;;;;;;13.25;11.25;;;;;20.22;41.16;102747.69;5089590;27;51211;-44
2021/12/15 02:53:38;;;;;;;;;15.75;13.75;;;;;20.21;40.97;102743.22;5077939;27;52027;-42
2021/12/15 02:56:05;;;;;;;;;14.25;12.75;;;;;20.20;41.06;102745.13;5089384;27;50994;-43
2021/12/15 02:58:34;;;;;;;;;13.00;12.25;;;;;20.19;41.03;102747.00;5094945;27;51116;-42
2021/12/15 03:01:06;;;;;;;;;17.25;12.75;;;;;20.19;40.87;102748.91;5079978;27;51255;-44
2021/12/15 03:06:33;;;;;;;;;14.00;12.00;;;;;20.18;41.06;102747.19;5091535;27;51033;-42
2021/12/15 03:17:02;;;;;;;;;15.75;14.50;;;;;20.13;41.30;102739.47;5079339;27;51705;-42
2021/12/15 03:19:27;;;;;;;;;14.25;14.00;;;;;20.14;41.33;102738.44;5088318;27;51054;-44
2021/12/15 03:21:53;;;;;;;;;12.50;11.00;;;;;20.12;40.84;102735.00;5088136;27;50873;-44
2021/12/15 03:24:24;;;;;;;;;11.75;11.50;;;;;20.13;40.69;102747.72;5103213;27;52414;-43
2021/12/15 03:27:02;;;;;;;;;13.50;13.50;;;;;20.12;41.06;102737.75;5087044;27;51309;-44
2021/12/15 03:37:32;;;;;;;;;12.75;12.75;;;;;20.09;41.11;102746.34;5088475;27;51106;-46
2021/12/15 03:40:05;;;;;;;;;11.75;11.50;;;;;20.08;41.04;102743.78;5090628;27;51064;-45
2021/12/15 03:42:35;;;;;;;;;10.25;10.25;;;;;20.08;41.04;102750.13;5087102;27;50900;-45
2021/12/15 03:45:06;;;;;;;;;12.50;10.50;;;;;20.07;41.10;102756.66;5089728;27;52621;-43
2021/12/15 03:47:35;;;;;;;;;12.25;11.75;;;;;20.07;40.87;102756.66;5092411;27;51007;-44
2021/12/15 03:50:05;;;;;;;;;12.50;11.25;;;;;20.07;41.47;102758.56;5089206;27;51017;-42
2021/12/15 03:52:31;;;;;;;;;11.00;10.00;;;;;20.07;41.02;102753.06;5081869;27;51307;-43
2021/12/15 03:54:57;;;;;;;;;12.50;11.50;;;;;20.06;41.32;102762.34;5087180;27;50969;-43
2021/12/15 03:57:22;;;;;;;;;10.00;10.00;;;;;20.06;41.20;102760.44;5107326;27;51015;-47
2021/12/15 03:59:48;;;;;;;;;10.00;10.00;;;;;20.05;41.12;102757.88;5080163;27;51147;-43
2021/12/15 04:02:17;;;;;;;;;11.25;11.25;;;;;20.05;40.67;102757.88;5084504;27;51557;-44
2021/12/15 04:04:43;;;;;;;;;11.50;9.00;;;;;20.04;40.95;102759.78;5078296;27;52659;-44
2021/12/15 04:07:10;;;;;;;;;10.25;9.00;;;;;20.03;40.97;102759.94;5087244;27;50966;-42
2021/12/15 04:09:36;;;;;;;;;12.00;11.25;;;;;20.02;40.82;102750.84;5085361;27;51194;-43
2021/12/15 04:12:03;;;;;;;;;8.50;8.25;;;;;20.03;41.04;102758.06;5090332;27;51085;-44
2021/12/15 04:14:34;;;;;;;;;10.00;9.50;;;;;20.02;41.21;102753.59;5085846;27;51041;-44
2021/12/15 04:17:06;;;;;;;;;14.25;12.50;;;;;20.02;41.46;102756.34;5082303;27;50912;-44
2021/12/15 04:19:35;;;;;;;;;12.25;12.25;;;;;20.03;41.10;102754.44;5086597;27;51172;-47
2021/12/15 04:22:01;;;;;;;;;10.75;10.25;;;;;20.01;41.34;102754.63;5082504;27;51102;-43
2021/12/15 04:24:27;;;;;;;;;10.75;10.50;;;;;20.01;40.88;102749.13;5087592;27;50964;-43
2021/12/15 04:26:56;;;;;;;;;10.00;8.25;;;;;19.99;41.39;102745.66;5101396;27;50934;-43
2021/12/15 04:29:22;;;;;;;;;12.00;10.25;;;;;19.99;41.09;102748.41;5086858;27;51069;-45
2021/12/15 04:31:58;;;;;;;;;10.25;10.25;;;;;19.99;40.95;102747.56;5068239;27;51138;-45
2021/12/15 04:34:24;;;;;;;;;16.00;10.00;;;;;19.98;41.03;102748.59;5103508;27;51797;-46
2021/12/15 04:36:52;;;;;;;;;12.00;10.00;;;;;19.98;41.02;102749.44;5087622;27;51411;-45
2021/12/15 04:39:23;;;;;;;;;10.00;9.75;;;;;19.98;41.18;102746.69;5087045;27;51034;-43
2021/12/15 04:41:51;;;;;;;;;12.00;9.25;;;;;19.98;41.25;102748.59;5091037;27;51249;-47
2021/12/15 04:44:18;;;;;;;;;9.75;9.25;;;;;19.96;40.84;102750.66;5084932;27;52759;-43
2021/12/15 04:46:59;;;;;;;;;12.75;11.50;;;;;19.95;40.97;102749.81;5077161;27;51084;-47
2021/12/15 04:49:25;;;;;;;;;12.50;11.50;;;;;19.96;40.88;102751.53;5080354;27;51306;-43
2021/12/15 04:51:51;;;;;;;;;15.00;9.75;;;;;19.94;40.86;102756.34;5081992;27;51078;-43
2021/12/15 04:54:18;;;;;;;;;10.50;10.00;;;;;19.94;41.44;102759.09;5072360;27;51991;-46
2021/12/15 04:56:44;;;;;;;;;7.25;7.25;;;;;19.93;41.22;102757.38;5078270;27;50935;-42
2021/12/15 04:59:11;;;;;;;;;12.00;10.50;;;;;19.94;41.35;102761.00;5087869;27;51105;-45
2021/12/15 05:01:36;;;;;;;;;9.50;8.50;;;;;19.93;41.16;102759.28;5079643;27;51203;-43
2021/12/15 05:04:02;;;;;;;;;7.25;7.00;;;;;19.93;41.48;102762.03;5087030;27;51118;-45
2021/12/15 05:06:28;;;;;;;;;9.25;7.00;;;;;19.92;41.26;102768.56;5107887;27;51105;-44
2021/12/15 05:08:55;;;;;;;;;8.00;8.00;;;;;19.92;41.00;102772.16;5078804;27;51451;-44
2021/12/15 05:11:20;;;;;;;;;10.50;9.00;;;;;19.91;41.31;102769.59;5086695;27;51094;-43
2021/12/15 05:13:46;;;;;;;;;10.75;8.75;;;;;19.90;41.15;102771.44;5081180;27;54126;-46
2021/12/15 05:16:12;;;;;;;;;7.25;7.25;;;;;19.89;41.30;102773.34;5085560;27;51071;-45
2021/12/15 05:18:37;;;;;;;;;10.00;8.50;;;;;19.90;41.05;102774.19;5096586;27;50927;-43
2021/12/15 05:21:05;;;;;;;;;11.50;9.25;;;;;19.89;41.22;102778.00;5082488;27;51791;-46
2021/12/15 05:23:31;;;;;;;;;7.00;7.00;;;;;19.88;41.09;102782.63;5087867;27;51999;-44
2021/12/15 05:25:58;;;;;;;;;6.25;6.25;;;;;19.89;41.03;102780.75;5085727;27;51122;-44
2021/12/15 05:28:24;;;;;;;;;8.25;8.25;;;;;19.87;41.03;102782.81;5079016;27;51018;-45
2021/12/15 05:30:50;;;;;;;;;9.75;8.00;;;;;19.87;40.96;102788.31;5084170;27;51075;-43
2021/12/15 05:33:15;;;;;;;;;12.00;7.25;;;;;19.87;41.32;102791.06;5081187;27;51807;-44
2021/12/15 05:35:41;;;;;;;;;10.25;8.00;;;;;19.86;41.02;102792.94;5104149;27;51029;-44
2021/12/15 05:38:08;;;;;;;;;6.75;6.75;;;;;19.85;40.92;102784.88;5088626;27;51040;-44
2021/12/15 05:40:34;;;;;;;;;7.75;6.75;;;;;19.85;41.41;102799.47;5082536;27;51070;-44
2021/12/15 05:43:01;;;;;;;;;6.50;6.50;;;;;19.85;41.12;102804.13;5076164;27;51134;-45
2021/12/15 05:45:29;;;;;;;;;8.50;8.25;;;;;19.84;41.21;102802.41;5085472;27;51040;-44
2021/12/15 05:47:56;;;;;;;;;7.50;6.00;;;;;19.84;41.11;102796.91;5088867;27;51094;-44
2021/12/15 05:50:23;;;;;;;;;7.25;7.25;;;;;19.84;41.02;102799.66;5083219;27;50893;-43
2021/12/15 05:52:50;;;;;;;;;9.50;7.00;;;;;19.83;41.14;102795.19;5085471;27;51910;-42
2021/12/15 05:55:18;;;;;;;;;8.75;7.00;;;;;19.83;41.20;102800.69;5088399;27;51134;-43
2021/12/15 05:57:43;;;;;;;;;12.00;9.25;;;;;19.83;41.12;102803.44;5097068;27;51056;-43
2021/12/15 06:00:15;;;;;;;;;6.00;6.00;;;;;19.82;41.35;102798.97;5077832;27;51080;-44
2021/12/15 06:02:41;;;;;;;;;9.00;7.50;;;;;19.80;41.28;102798.25;5090477;27;51945;-44
2021/12/15 06:05:08;;;;;;;;;6.00;6.00;;;;;19.80;41.36;102807.41;5091042;27;51261;-43
2021/12/15 06:07:34;;;;;;;;;7.50;7.00;;;;;19.81;41.19;102814.63;5084677;27;51122;-47
2021/12/15 06:09:59;;;;;;;;;7.25;6.00;;;;;19.80;41.28;102810.16;5093539;27;51386;-45
2021/12/15 06:12:25;;;;;;;;;6.25;5.75;;;;;19.80;41.03;102809.25;5080265;27;51441;-45
2021/12/15 06:14:51;;;;;;;;;7.75;7.75;;;;;19.80;41.08;102812.91;5087416;27;51037;-43
2021/12/15 06:17:17;;;;;;;;;7.25;7.25;;;;;19.78;41.11;102819.56;5081373;27;50964;-44
2021/12/15 06:19:42;;;;;;;;;15.25;12.50;;;;;19.77;40.60;102829.72;5085257;27;51114;-44
2021/12/15 06:22:11;;;;;;;;;18.25;13.25;;;;;19.75;40.21;102839.19;5084909;27;52215;-44
2021/12/15 06:24:36;;;;;;;;;15.50;15.00;;;;;19.73;39.86;102844.00;5077646;27;50976;-43
2021/12/15 06:27:09;;;;;;;;;16.00;15.00;;;;;19.68;39.89;102846.38;5085167;27;51042;-46
2021/12/15 06:29:36;;;;;;;;;19.75;18.00;;;;;19.63;39.48;102844.16;5107999;27;51103;-46
2021/12/15 06:32:03;;;;;;;;;19.75;15.75;;;;;19.59;39.91;102845.50;5071630;27;51823;-44
2021/12/15 06:34:28;;;;;;;;;20.50;16.00;;;;;19.54;39.36;102845.97;5072788;27;51129;-44
2021/12/15 06:36:55;;;;;;;;;21.25;15.75;;;;;19.49;39.43;102848.38;5075336;27;51225;-46
2021/12/15 06:39:20;;;;;;;;;22.00;14.75;;;;;19.46;39.52;102834.94;5084750;27;51181;-44
2021/12/15 06:41:45;;;;;;;;;19.75;17.00;;;;;19.43;39.29;102838.03;5072861;27;51958;-45
2021/12/15 06:44:13;;;;;;;;;14.75;14.00;;;;;19.45;39.72;102832.38;5076386;27;51134;-44
2021/12/15 06:57:16;;;;;;;;;14.00;12.00;;;;;19.49;39.54;102840.13;5073780;27;50990;-44
2021/12/15 07:00:32;;;;;;;;;7.75;6.25;;;;;19.94;41.39;102855.38;5087646;27;50880;-43
2021/12/15 07:02:59;;;;;;;;;6.00;6.00;;;;;19.99;41.41;102855.69;5094910;27;51007;-43
2021/12/15 07:05:26;;;;;;;;;5.75;5.00;;;;;20.04;41.57;102857.97;5089258;27;51136;-43
2021/12/15 07:07:53;;;;;;;;;7.00;5.75;;;;;20.09;42.04;102856.38;5087122;27;50941;-44
2021/12/15 07:10:23;;;;;;;;;6.50;5.00;;;;;20.14;41.89;102861.41;5086032;27;51374;-44
2021/12/15 07:12:49;;;;;;;;;7.25;7.25;;;;;20.21;42.13;102865.16;5086686;27;52779;-44
2021/12/15 07:15:16;;;;;;;;;8.00;7.00;;;;;20.28;42.24;102865.34;5082716;27;51123;-42
2021/12/15 07:17:45;;;;;;;;;8.50;5.75;;;;;20.34;42.30;102865.53;5085662;27;51339;-43
2021/12/15 07:22:58;;;;;;;;;7.75;6.00;;;;;20.48;42.16;102875.00;5082422;27;51159;-44
2021/12/15 07:25:24;;;;;;;;;5.25;5.25;;;;;20.54;41.92;102878.97;5087859;27;51326;-45
2021/12/15 07:27:50;;;;;;;;;6.25;6.25;;;;;20.58;42.32;102881.19;5084139;27;51145;-43
2021/12/15 07:30:15;;;;;;;;;5.25;4.25;;;;;20.62;42.33;102877.03;5076818;27;51043;-43
2021/12/15 07:32:42;;;;;;;;;4.75;4.25;;;;;20.63;42.11;102888.91;5071998;27;52101;-42
2021/12/15 07:35:10;;;;;;;;;7.50;6.25;;;;;20.62;42.06;102887.19;5079848;27;51192;-44
2021/12/15 07:37:36;;;;;;;;;7.00;6.00;;;;;20.62;42.14;102882.53;5084837;27;51078;-45
2021/12/15 07:40:06;;;;;;;;;8.75;7.00;;;;;20.63;41.55;102894.41;5098104;27;51185;-43
2021/12/15 07:42:36;;;;;;;;;7.00;6.75;;;;;20.66;41.77;102894.94;5075469;27;52678;-46
2021/12/15 07:45:03;;;;;;;;;8.50;5.50;;;;;20.71;41.84;102895.28;5109324;27;51259;-44
2021/12/15 07:47:29;;;;;;;;;6.50;5.50;;;;;20.75;42.14;102902.16;5074141;27;51268;-45
2021/12/15 07:49:57;;;;;;;;;8.75;7.50;;;;;20.80;42.09;102909.03;5095577;27;51236;-44
2021/12/15 07:52:23;;;;;;;;;9.00;7.50;;;;;20.83;41.76;102903.16;5074491;27;52909;-47
2021/12/15 07:54:48;;;;;;;;;8.00;6.25;;;;;20.85;41.61;102901.13;5073865;27;51031;-45
2021/12/15 07:57:19;;;;;;;;;7.50;7.50;;;;;20.85;41.92;102910.25;5076170;27;51064;-44
2021/12/15 07:59:45;;;;;;;;;12.75;10.00;;;;;20.84;41.63;102910.38;5081817;27;51141;-45
2021/12/15 08:02:10;;;;;;;;;8.25;6.75;;;;;20.84;42.11;102907.63;5078117;27;52090;-43
2021/12/15 08:04:36;;;;;;;;;8.00;8.00;;;;;20.80;41.82;102915.41;5074295;27;51217;-44
2021/12/15 08:07:02;;;;;;;;;8.50;7.00;;;;;20.77;41.25;102910.25;5078755;27;51740;-44
2021/12/15 08:09:27;;;;;;;;;9.25;8.00;;;;;20.74;41.67;102916.97;5079323;27;51395;-45
2021/12/15 08:11:53;;;;;;;;;3.25;1.00;;;;;20.69;41.62;102919.38;5082533;27;51680;-43
2021/12/15 08:14:18;;;;;;;;;9.25;8.50;;;;;20.67;41.36;102915.09;5081802;27;51228;-44
2021/12/15 08:16:44;;;;;;;;;8.00;7.50;;;;;20.63;41.92;102917.31;5078699;27;51541;-43
2021/12/15 08:19:10;;;;;;;;;9.75;8.00;;;;;20.57;41.47;102915.25;5085719;27;50986;-43
2021/12/15 08:21:35;;;;;;;;;13.25;10.00;;;;;20.52;41.72;102925.91;5074599;28;50921;-44
2021/12/15 08:24:01;;;;;;;;;10.25;8.50;;;;;20.47;42.04;102922.84;5077397;27;51282;-46
2021/12/15 08:26:27;;;;;;;;;11.75;9.25;;;;;20.43;41.76;102922.34;5084394;27;50982;-44
2021/12/15 08:28:53;;;;;;;;;12.00;10.25;;;;;20.41;41.65;102915.22;5085130;27;50928;-44
2021/12/15 08:31:18;;;;;;;;;14.50;8.75;;;;;20.38;41.72;102915.56;5086542;27;52162;-44
2021/12/15 08:33:44;;;;;;;;;12.75;9.25;;;;;20.35;41.97;102913.19;5088396;27;51257;-45
2021/12/15 08:36:12;;;;;;;;;12.50;8.00;;;;;20.32;42.02;102911.63;5085890;27;51083;-47
2021/12/15 08:38:41;;;;;;;;;10.00;10.00;;;;;20.30;42.20;102924.69;5087242;27;50940;-45
2021/12/15 08:41:12;;;;;;;;;14.00;12.00;;;;;20.29;41.88;102919.34;5080720;27;51836;-44
2021/12/15 08:43:38;;;;;;;;;9.75;8.25;;;;;20.27;42.12;102913.16;5107678;27;51208;-46
2021/12/15 08:46:13;;;;;;;;;7.00;6.00;;;;;20.26;42.26;102930.72;5085455;27;51643;-44
2021/12/15 08:48:40;;;;;;;;;2.50;2.50;;;;;20.25;41.94;102929.00;5088201;27;51135;-52
2021/12/15 08:51:07;;;;;;;;;9.25;6.50;;;;;20.23;42.01;102923.66;5086441;27;51179;-46
2021/12/15 08:53:34;;;;;;;;;10.25;7.50;;;;;20.19;41.97;102923.13;5081635;27;51240;-45
2021/12/15 08:56:00;;;;;;;;;6.50;5.00;;;;;20.17;42.29;102925.19;5086006;27;51060;-44
2021/12/15 08:58:25;;;;;;;;;7.75;7.00;;;;;20.14;42.19;102927.44;5083316;27;51020;-45
2021/12/15 09:00:53;;;;;;;;;7.50;7.50;;;;;20.13;41.91;102933.97;5087545;27;53421;-46
2021/12/15 09:03:20;;;;;;;;;8.75;7.00;;;;;20.12;42.05;102924.88;5090361;27;51454;-45
2021/12/15 09:05:47;;;;;;;;;7.25;7.25;;;;;20.12;42.39;102924.00;5085753;27;51295;-44
2021/12/15 09:08:13;;;;;;;;;7.75;7.50;;;;;20.11;42.24;102931.41;5078335;27;51131;-43
2021/12/15 09:10:43;;;;;;;;;6.00;6.00;;;;;20.09;41.90;102927.94;5084532;27;50931;-44
2021/12/15 09:13:09;;;;;;;;;9.00;5.75;;;;;20.10;42.52;102939.78;5073116;27;50901;-45
2021/12/15 09:15:36;;;;;;;;;6.50;5.25;;;;;20.06;42.49;102935.66;5078750;27;51108;-44
2021/12/15 09:18:03;;;;;;;;;9.25;9.00;;;;;20.08;42.30;102944.63;5066646;27;51190;-49
2021/12/15 09:20:31;;;;;;;;;9.00;5.50;;;;;20.12;42.40;102937.75;5067555;27;52326;-44
2021/12/15 09:22:58;;;;;;;;;7.25;7.25;;;;;20.21;42.62;102942.22;5070455;27;51476;-48
2021/12/15 09:25:24;;;;;;;;;7.25;6.25;;;;;20.30;42.11;102940.34;5071012;27;51180;-47
2021/12/15 09:27:50;;;;;;;;;7.00;6.75;;;;;20.38;41.79;102938.47;5073024;27;51317;-45
2021/12/15 09:30:20;;;;;;;;;5.00;5.00;;;;;20.49;41.95;102945.53;5071710;27;52721;-44
2021/12/15 09:32:47;;;;;;;;;4.25;4.25;;;;;20.58;42.39;102943.66;5069134;27;51422;-47
2021/12/15 09:35:16;;;;;;;;;6.25;6.00;;;;;20.67;41.96;102946.22;5066801;27;51167;-46
2021/12/15 09:37:42;;;;;;;;;7.25;5.00;;;;;20.74;41.83;102949.16;5065847;27;51272;-45
2021/12/15 09:40:10;;;;;;;;;6.25;6.00;;;;;20.84;41.67;102947.09;5067978;27;52027;-44
2021/12/15 09:42:39;;;;;;;;;5.00;5.00;;;;;20.91;42.11;102939.81;5066358;27;51402;-44
2021/12/15 09:45:27;;;;;;;;;4.00;4.00;;;;;21.01;41.80;102942.41;5101808;27;51182;-45
2021/12/15 10:06:44;;;;;;;;;4.25;3.25;;;;;21.10;41.78;102938.59;5071951;27;51179;-46
2021/12/15 10:17:46;;;;;;;;;4.00;3.00;;;;;21.39;41.87;102951.81;5071618;27;51272;-45
2021/12/15 10:20:22;;;;;;;;;6.00;6.00;;;;;21.44;41.39;102951.25;5073647;27;52149;-46
2021/12/15 10:22:52;;;;;;;;;4.00;4.00;;;;;21.43;41.69;102950.41;5071160;27;51185;-45
2021/12/15 10:25:33;;;;;;;;;7.00;4.00;;;;;21.41;41.60;102948.84;5068516;27;51386;-44
2021/12/15 10:28:09;;;;;;;;;5.00;5.00;;;;;21.39;41.81;102948.19;5064337;27;51075;-46
2021/12/15 10:30:39;;;;;;;;;6.25;6.25;;;;;21.35;41.89;102946.81;5063485;27;51170;-46
2021/12/15 10:33:07;;;;;;;;;6.00;6.00;;;;;21.30;42.05;102948.22;5066670;27;51843;-45
2021/12/15 10:35:35;;;;;;;;;6.50;5.25;;;;;21.28;41.60;102944.78;5064397;27;51071;-47
2021/12/15 10:38:31;;;;;;;;;5.75;5.25;;;;;21.31;41.61;102946.31;5067727;27;52660;-44
2021/12/15 10:41:42;;;;;;;;;5.00;4.00;;;;;21.37;41.35;102944.75;5069476;27;51081;-44
2021/12/15 10:44:09;;;;;;;;;5.75;5.75;;;;;21.42;41.38;102945.91;5051555;27;51300;-45
2021/12/15 10:46:39;;;;;;;;;6.00;5.25;;;;;21.49;41.66;102957.09;5072575;27;51170;-47
2021/12/15 10:49:18;;;;;;;;;5.00;4.00;;;;;21.56;41.11;102944.31;5071060;27;51438;-44
2021/12/15 10:51:47;;;;;;;;;5.00;4.00;;;;;21.61;41.58;102934.47;5068637;27;51075;-45
2021/12/15 10:54:22;;;;;;;;;5.50;5.50;;;;;21.62;41.78;102935.31;5071139;27;51188;-45
2021/12/15 10:57:06;;;;;;;;;6.00;5.00;;;;;21.59;41.89;102932.94;5072396;27;51045;-45
2021/12/15 10:59:34;;;;;;;;;7.25;7.25;;;;;21.54;41.71;102938.13;5071960;27;51185;-46
2021/12/15 11:02:05;;;;;;;;;5.75;5.75;;;;;21.49;42.05;102927.63;5073885;27;51606;-46
2021/12/15 11:04:51;;;;;;;;;6.50;5.75;;;;;21.44;41.74;102941.09;5095991;27;52606;-45
2021/12/15 11:07:25;;;;;;;;;5.00;5.00;;;;;21.41;41.74;102935.06;5066690;27;52856;-44
2021/12/15 11:10:05;;;;;;;;;5.50;5.50;;;;;21.37;41.48;102939.25;5085472;27;51134;-43
2021/12/15 11:12:53;;;;;;;;;6.25;5.50;;;;;21.41;41.59;102940.59;5078216;27;51121;-46
2021/12/15 11:15:23;;;;;;;;;6.00;5.50;;;;;21.48;41.93;102934.19;5072076;27;51269;-43
2021/12/15 11:17:58;;;;;;;;;7.00;7.00;;;;;21.58;41.95;102928.47;5079610;27;51015;-42
2021/12/15 11:20:30;;;;;;;;;4.75;4.00;;;;;21.65;41.41;102932.19;5075414;27;51130;-42
2021/12/15 11:23:00;;;;;;;;;5.50;5.00;;;;;21.73;41.94;102931.31;5081228;27;52053;-43
2021/12/15 11:25:33;;;;;;;;;6.75;6.75;;;;;21.75;41.73;102924.56;5081842;27;52159;-45
2021/12/15 11:28:16;;;;;;;;;8.00;8.00;;;;;21.73;42.16;102929.41;5083980;27;51400;-43
2021/12/15 11:30:44;;;;;;;;;10.00;7.50;;;;;21.71;41.79;102925.97;5075381;27;51258;-43
2021/12/15 11:33:20;;;;;;;;;8.50;7.50;;;;;21.70;41.85;102923.41;5081194;27;51286;-46
2021/12/15 11:36:04;;;;;;;;;6.75;6.00;;;;;21.68;41.89;102918.06;5071624;27;51947;-45
2021/12/15 11:38:36;;;;;;;;;8.00;7.00;;;;;21.66;41.96;102920.13;5090911;27;51584;-44
2021/12/15 11:41:04;;;;;;;;;7.00;6.00;;;;;21.65;41.75;102921.16;5070692;27;51146;-48
2021/12/15 11:43:50;;;;;;;;;8.25;7.25;;;;;21.65;42.17;102918.41;5073832;27;51128;-47
2021/12/15 11:46:35;;;;;;;;;6.25;5.00;;;;;21.66;41.70;102919.25;5068646;27;51961;-45
2021/12/15 11:49:13;;;;;;;;;7.50;7.50;;;;;21.68;41.80;102909.78;5072659;27;51080;-46
2021/12/15 11:51:41;;;;;;;;;8.00;5.00;;;;;21.66;41.94;102922.88;5072129;27;51149;-44
2021/12/15 11:54:20;;;;;;;;;7.00;5.75;;;;;21.64;41.56;102913.06;5074017;27;51059;-45
2021/12/15 11:56:49;;;;;;;;;6.50;5.25;;;;;21.63;41.88;102912.22;5075844;27;52169;-46
2021/12/15 11:59:26;;;;;;;;;5.25;5.00;;;;;21.63;41.88;102912.22;5074999;27;51185;-44
2021/12/15 12:01:57;;;;;;;;;7.50;5.00;;;;;21.61;41.82;102908.78;5080703;27;52565;-45
2021/12/15 12:04:25;;;;;;;;;4.25;4.25;;;;;21.60;41.42;102907.06;5076481;27;51207;-44
2021/12/15 12:06:55;;;;;;;;;4.50;4.50;;;;;21.60;41.90;102909.84;5073466;27;51856;-45
2021/12/15 12:09:23;;;;;;;;;7.00;5.50;;;;;21.56;42.35;102906.56;5075062;27;51353;-44
2021/12/15 12:11:54;;;;;;;;;3.50;3.50;;;;;21.52;42.48;102898.84;5075819;27;51100;-44
2021/12/15 12:14:38;;;;;;;;;4.75;4.75;;;;;21.48;41.62;102900.25;5074437;27;50976;-43
2021/12/15 12:17:12;;;;;;;;;6.75;5.00;;;;;21.47;42.02;102899.38;5074777;27;51250;-44
2021/12/15 12:19:39;;;;;;;;;7.00;5.00;;;;;21.48;42.03;102900.25;5071488;27;51824;-44
2021/12/15 12:22:05;;;;;;;;;7.00;7.00;;;;;21.47;42.29;102906.81;5073355;27;51107;-45
2021/12/15 12:24:33;;;;;;;;;4.75;4.75;;;;;21.45;41.99;102892.31;5076994;27;51207;-44
2021/12/15 12:26:59;;;;;;;;;10.75;7.00;;;;;21.45;42.08;102897.81;5081616;27;52047;-44
2021/12/15 12:29:26;;;;;;;;;6.75;5.25;;;;;21.44;42.00;102896.09;5090166;27;51151;-47
2021/12/15 12:31:52;;;;;;;;;6.75;5.00;;;;;21.44;41.97;102901.63;5086034;27;51100;-44
2021/12/15 12:34:17;;;;;;;;;6.00;5.25;;;;;21.41;42.16;102897.34;5086788;27;50999;-43
2021/12/15 12:36:43;;;;;;;;;5.00;5.00;;;;;21.39;41.91;102887.53;5077125;27;52012;-43
2021/12/15 12:39:12;;;;;;;;;10.00;7.25;;;;;21.37;41.93;102889.63;5072200;27;51453;-43
2021/12/15 12:41:44;;;;;;;;;8.00;5.75;;;;;21.35;42.26;102886.16;5068197;27;51537;-44
2021/12/15 12:44:12;;;;;;;;;5.25;4.00;;;;;21.32;42.25;102877.22;5068943;27;51084;-44